Time;durP1;ratioP1;P1;durP2;ratioP2;P2;SDS_P1;SDS_P2;PMS_P1;PMS_P2;Temp;Humidity;BMP_temperature;BMP_pressure;BME280_temperature;BME280_humidity;BME280_pressure;Samples;Min_cycle;Max_cycle;Signal;HPM_P1;HPM_P2
2022/11/03 00:01:09;;;;;;;;;;;14.50;61.40;;;;;;5022431;28;87159;-37
2022/11/03 00:03:35;;;;;;;;;;;14.50;61.50;;;;;;5022695;28;87202;-37
2022/11/03 00:06:03;;;;;;;;;;;14.40;61.40;;;;;;5024425;28;89186;-37
2022/11/03 00:08:33;;;;;;;;;;;14.50;61.50;;;;;;5022502;28;88484;-37
2022/11/03 00:11:02;;;;;;;;;;;14.40;61.40;;;;;;5021750;28;90577;-37
2022/11/03 00:13:28;;;;;;;;;;;14.40;61.40;;;;;;5022490;28;87047;-37
2022/11/03 00:15:53;;;;;;;;;;;14.50;61.50;;;;;;5022411;28;87980;-37
2022/11/03 00:18:19;;;;;;;;;;;14.40;61.40;;;;;;5022168;28;87684;-37
2022/11/03 00:20:44;;;;;;;;;;;14.40;61.40;;;;;;5022205;28;87131;-37
2022/11/03 00:23:10;;;;;;;;;;;14.40;61.40;;;;;;5022885;28;87223;-37
2022/11/03 00:25:35;;;;;;;;;;;14.40;62.10;;;;;;5021900;28;87511;-37
2022/11/03 00:28:00;;;;;;;;;;;14.40;61.40;;;;;;5025104;28;87129;-37
2022/11/03 00:30:26;;;;;;;;;;;14.40;61.40;;;;;;5021118;28;89319;-37
2022/11/03 00:32:51;;;;;;;;;;;14.30;61.40;;;;;;5022111;28;87205;-37
2022/11/03 00:35:17;;;;;;;;;;;14.40;61.40;;;;;;5021718;28;87376;-37
2022/11/03 00:37:42;;;;;;;;;;;14.40;61.50;;;;;;5021751;28;88131;-37
2022/11/03 00:40:09;;;;;;;;;;;14.40;61.50;;;;;;5022148;28;87049;-37
2022/11/03 00:42:36;;;;;;;;;;;14.30;61.40;;;;;;5022222;28;87848;-38
2022/11/03 00:45:01;;;;;;;;;;;14.30;61.40;;;;;;5023164;28;88051;-37
2022/11/03 00:47:27;;;;;;;;;;;14.30;61.40;;;;;;5026140;28;86735;-37
2022/11/03 00:49:52;;;;;;;;;;;14.30;61.40;;;;;;5028263;28;87118;-37
2022/11/03 00:52:18;;;;;;;;;;;14.30;61.50;;;;;;5025122;28;87104;-37
2022/11/03 00:54:43;;;;;;;;;;;14.30;61.50;;;;;;5024748;28;87956;-37
2022/11/03 00:57:09;;;;;;;;;;;14.30;61.50;;;;;;5023407;28;91115;-37
2022/11/03 00:59:34;;;;;;;;;;;14.30;61.50;;;;;;5025416;28;87055;-37
2022/11/03 01:02:00;;;;;;;;;;;14.30;61.50;;;;;;5025318;28;87449;-37
2022/11/03 01:07:10;;;;;;;;;;;14.20;61.40;;;;;;5025215;28;87007;-37
2022/11/03 01:09:37;;;;;;;;;;;14.20;61.40;;;;;;5025202;28;87383;-37
2022/11/03 01:12:09;;;;;;;;;;;14.30;61.50;;;;;;5027825;28;88171;-37
2022/11/03 01:14:39;;;;;;;;;;;14.20;61.40;;;;;;5025048;28;86964;-37
2022/11/03 01:17:34;;;;;;;;;;;14.20;61.50;;;;;;5024714;28;88013;-37
2022/11/03 01:20:00;;;;;;;;;;;14.20;61.50;;;;;;5014637;28;88107;-37
2022/11/03 01:22:25;;;;;;;;;;;14.20;61.50;;;;;;5024756;28;89874;-37
2022/11/03 01:24:51;;;;;;;;;;;14.20;61.50;;;;;;5024523;28;88320;-37
2022/11/03 01:27:18;;;;;;;;;;;14.20;61.50;;;;;;5025017;28;87107;-37
2022/11/03 01:29:43;;;;;;;;;;;14.20;61.50;;;;;;5024648;28;87075;-37
2022/11/03 01:32:09;;;;;;;;;;;14.20;61.50;;;;;;5027420;28;88321;-37
2022/11/03 01:34:35;;;;;;;;;;;14.10;61.50;;;;;;5024035;28;87367;-37
2022/11/03 01:37:00;;;;;;;;;;;14.20;61.60;;;;;;5025141;28;86820;-37
2022/11/03 01:39:26;;;;;;;;;;;14.10;61.50;;;;;;5024881;28;87141;-37
2022/11/03 01:41:52;;;;;;;;;;;14.10;61.50;;;;;;5024682;28;87487;-37
2022/11/03 01:44:17;;;;;;;;;;;14.10;61.50;;;;;;5023657;28;89448;-37
2022/11/03 01:46:43;;;;;;;;;;;14.10;61.50;;;;;;5024415;28;87094;-37
2022/11/03 01:49:11;;;;;;;;;;;14.10;61.60;;;;;;5024759;28;87412;-37
2022/11/03 01:51:38;;;;;;;;;;;14.10;61.50;;;;;;5024053;28;87926;-37
2022/11/03 01:54:07;;;;;;;;;;;14.10;61.50;;;;;;5027468;28;87217;-37
2022/11/03 01:56:34;;;;;;;;;;;14.10;61.60;;;;;;5023886;28;87430;-37
2022/11/03 01:59:00;;;;;;;;;;;14.10;61.50;;;;;;5024152;28;86860;-37
2022/11/03 02:01:26;;;;;;;;;;;14.10;61.60;;;;;;5025242;28;87335;-37
2022/11/03 02:03:54;;;;;;;;;;;14.10;61.60;;;;;;5024161;28;88028;-37
2022/11/03 02:06:21;;;;;;;;;;;14.10;61.60;;;;;;5024514;28;88289;-37
2022/11/03 02:08:55;;;;;;;;;;;14.10;61.60;;;;;;5023857;28;87987;-37
2022/11/03 02:14:09;;;;;;;;;;;14.10;61.60;;;;;;5021943;28;88345;-37
2022/11/03 02:16:35;;;;;;;;;;;14.00;61.60;;;;;;5026579;28;87353;-37
2022/11/03 02:19:01;;;;;;;;;;;14.00;61.60;;;;;;5024286;28;87515;-37
2022/11/03 02:21:26;;;;;;;;;;;14.00;61.60;;;;;;5024220;28;87366;-37
2022/11/03 02:23:57;;;;;;;;;;;14.00;61.60;;;;;;5023773;28;88077;-37
2022/11/03 02:26:23;;;;;;;;;;;14.00;61.70;;;;;;5024288;28;86387;-37
2022/11/03 02:28:49;;;;;;;;;;;14.00;61.60;;;;;;5023980;28;86999;-37
2022/11/03 02:31:37;;;;;;;;;;;14.00;61.60;;;;;;5023441;28;88304;-37
2022/11/03 02:34:02;;;;;;;;;;;14.00;61.60;;;;;;5023482;28;87971;-37
2022/11/03 02:36:33;;;;;;;;;;;14.00;61.60;;;;;;5023648;28;88387;-37
2022/11/03 02:39:04;;;;;;;;;;;14.00;61.60;;;;;;5026334;28;88013;-37
2022/11/03 02:41:32;;;;;;;;;;;13.90;61.60;;;;;;5023780;28;87549;-37
2022/11/03 02:43:59;;;;;;;;;;;13.90;61.70;;;;;;5023301;28;88203;-37
2022/11/03 02:46:25;;;;;;;;;;;13.90;61.70;;;;;;5023648;28;87141;-37
2022/11/03 02:48:51;;;;;;;;;;;13.90;61.60;;;;;;5023681;28;87399;-36
2022/11/03 02:51:16;;;;;;;;;;;13.90;61.60;;;;;;5023626;28;87592;-37
2022/11/03 02:53:45;;;;;;;;;;;13.90;61.60;;;;;;5023599;28;87119;-37
2022/11/03 02:56:14;;;;;;;;;;;13.90;61.60;;;;;;5023441;28;87688;-37
2022/11/03 02:58:44;;;;;;;;;;;13.90;61.60;;;;;;5022142;28;90448;-37
2022/11/03 03:01:31;;;;;;;;;;;13.90;61.70;;;;;;5026480;28;87048;-37
2022/11/03 03:04:05;;;;;;;;;;;13.90;61.70;;;;;;5022816;28;89253;-37
2022/11/03 03:06:36;;;;;;;;;;;13.90;61.70;;;;;;5023476;28;87041;-37
2022/11/03 03:09:04;;;;;;;;;;;13.80;61.70;;;;;;5021240;28;90454;-37
2022/11/03 03:11:35;;;;;;;;;;;13.90;61.80;;;;;;5022987;28;88087;-37
2022/11/03 03:14:18;;;;;;;;;;;13.80;61.70;;;;;;5023416;28;86995;-37
2022/11/03 03:16:48;;;;;;;;;;;13.80;61.70;;;;;;5023695;28;86593;-37
2022/11/03 03:19:28;;;;;;;;;;;13.80;61.70;;;;;;5022655;28;89477;-37
2022/11/03 03:21:56;;;;;;;;;;;13.80;61.80;;;;;;5023247;28;87575;-36
2022/11/03 03:24:28;;;;;;;;;;;13.80;61.80;;;;;;5024948;28;87911;-37
2022/11/03 03:26:57;;;;;;;;;;;13.80;61.80;;;;;;5022895;28;87157;-37
2022/11/03 03:29:36;;;;;;;;;;;13.80;61.80;;;;;;5022914;28;87041;-37
2022/11/03 03:32:05;;;;;;;;;;;13.80;61.80;;;;;;5022837;28;88347;-36
2022/11/03 03:34:30;;;;;;;;;;;13.80;61.80;;;;;;5022429;28;87008;-37
2022/11/03 03:36:57;;;;;;;;;;;13.80;61.80;;;;;;5022820;28;87235;-37
2022/11/03 03:39:25;;;;;;;;;;;13.70;61.80;;;;;;5022288;28;88031;-37
2022/11/03 03:41:51;;;;;;;;;;;13.70;61.80;;;;;;5023351;28;86405;-36
2022/11/03 03:44:17;;;;;;;;;;;13.70;61.80;;;;;;5025464;28;87135;-37
2022/11/03 03:47:09;;;;;;;;;;;13.70;61.80;;;;;;5022768;28;87097;-37
2022/11/03 03:49:34;;;;;;;;;;;13.70;61.80;;;;;;5019778;28;88152;-37
2022/11/03 03:52:02;;;;;;;;;;;13.70;61.80;;;;;;5022000;28;88356;-37
2022/11/03 03:54:28;;;;;;;;;;;13.70;61.80;;;;;;5022765;28;87101;-36
2022/11/03 03:56:53;;;;;;;;;;;13.70;61.80;;;;;;5022725;28;87024;-37
2022/11/03 03:59:19;;;;;;;;;;;13.70;61.80;;;;;;5022169;28;88692;-37
2022/11/03 04:01:44;;;;;;;;;;;13.70;61.80;;;;;;5022739;28;87184;-37
2022/11/03 04:04:10;;;;;;;;;;;13.70;61.80;;;;;;5022756;28;87402;-37
2022/11/03 04:06:35;;;;;;;;;;;13.70;61.80;;;;;;5025400;28;87493;-37
2022/11/03 04:09:00;;;;;;;;;;;13.70;61.90;;;;;;5022626;28;87026;-37
2022/11/03 04:22:24;;;;;;;;;;;13.60;61.80;;;;;;5026030;28;86935;-37
2022/11/03 04:24:50;;;;;;;;;;;13.60;61.80;;;;;;5026096;28;87511;-37
2022/11/03 04:27:35;;;;;;;;;;;13.60;61.90;;;;;;5025676;28;87677;-37
2022/11/03 04:30:05;;;;;;;;;;;13.60;61.90;;;;;;5028699;28;87093;-37
2022/11/03 04:32:32;;;;;;;;;;;13.60;62.50;;;;;;5025956;28;87318;-37
2022/11/03 04:34:58;;;;;;;;;;;13.50;61.80;;;;;;5025023;28;87107;-37
2022/11/03 04:37:25;;;;;;;;;;;13.50;61.90;;;;;;5024889;28;87161;-37
2022/11/03 04:39:51;;;;;;;;;;;13.50;61.90;;;;;;5023537;28;89028;-36
2022/11/03 04:42:16;;;;;;;;;;;13.50;61.90;;;;;;5024805;28;87144;-37
2022/11/03 04:44:42;;;;;;;;;;;13.50;61.90;;;;;;5024851;28;87222;-37
2022/11/03 04:47:10;;;;;;;;;;;13.50;61.90;;;;;;5024495;28;88088;-37
2022/11/03 04:49:36;;;;;;;;;;;13.50;61.80;;;;;;5024663;28;87377;-37
2022/11/03 04:52:01;;;;;;;;;;;13.50;61.80;;;;;;5026756;28;88844;-37
2022/11/03 04:54:27;;;;;;;;;;;13.50;61.80;;;;;;5024481;28;87102;-37
2022/11/03 04:56:53;;;;;;;;;;;13.50;61.80;;;;;;5024719;28;87478;-37
2022/11/03 04:59:18;;;;;;;;;;;13.50;61.90;;;;;;5024170;28;88078;-37
2022/11/03 05:01:44;;;;;;;;;;;13.50;61.90;;;;;;5024304;28;87753;-37
2022/11/03 05:04:11;;;;;;;;;;;13.40;61.80;;;;;;5023989;28;88021;-37
2022/11/03 05:06:37;;;;;;;;;;;13.40;61.80;;;;;;5023884;28;88079;-36
2022/11/03 05:09:15;;;;;;;;;;;13.40;61.90;;;;;;5024143;28;87002;-37
2022/11/03 05:11:42;;;;;;;;;;;13.40;61.90;;;;;;5024058;28;88917;-37
2022/11/03 05:14:19;;;;;;;;;;;13.40;61.90;;;;;;5026656;28;89608;-37
2022/11/03 05:16:45;;;;;;;;;;;13.40;61.80;;;;;;5023941;28;89271;-36
2022/11/03 05:19:17;;;;;;;;;;;13.40;61.80;;;;;;5023789;28;88152;-37
2022/11/03 05:21:42;;;;;;;;;;;13.40;61.80;;;;;;5024538;28;86263;-36
2022/11/03 05:24:10;;;;;;;;;;;13.40;61.80;;;;;;5023730;28;87020;-37
2022/11/03 05:26:36;;;;;;;;;;;13.40;61.80;;;;;;5023736;28;88014;-37
2022/11/03 05:29:21;;;;;;;;;;;13.40;61.80;;;;;;5023103;28;88169;-37
2022/11/03 05:31:47;;;;;;;;;;;13.30;61.80;;;;;;5023110;28;89738;-37
2022/11/03 05:34:19;;;;;;;;;;;13.30;61.90;;;;;;5023278;28;88508;-37
2022/11/03 05:36:44;;;;;;;;;;;13.30;61.80;;;;;;4985045;28;1199220;-36
2022/11/03 05:39:30;;;;;;;;;;;13.30;61.80;;;;;;5024611;28;88523;-37
2022/11/03 05:41:59;;;;;;;;;;;13.30;61.80;;;;;;5024772;28;87036;-36
2022/11/03 05:44:28;;;;;;;;;;;13.30;61.80;;;;;;5024629;28;89014;-37
2022/11/03 05:46:55;;;;;;;;;;;13.30;61.80;;;;;;5024370;28;87455;-36
2022/11/03 05:49:21;;;;;;;;;;;13.30;61.80;;;;;;5024503;28;87213;-37
2022/11/03 05:51:47;;;;;;;;;;;13.30;61.80;;;;;;5024427;28;87083;-37
2022/11/03 05:54:19;;;;;;;;;;;13.30;61.80;;;;;;5023822;28;89051;-37
2022/11/03 05:56:45;;;;;;;;;;;13.30;61.80;;;;;;5027639;28;86943;-37
2022/11/03 05:59:12;;;;;;;;;;;13.30;61.80;;;;;;5024235;28;88015;-37
2022/11/03 06:01:38;;;;;;;;;;;13.30;61.90;;;;;;5024267;28;87145;-37
2022/11/03 06:04:19;;;;;;;;;;;13.20;61.80;;;;;;5024371;28;87157;-37
2022/11/03 06:06:57;;;;;;;;;;;13.20;61.80;;;;;;5024142;28;87946;-37
2022/11/03 06:09:24;;;;;;;;;;;13.20;61.80;;;;;;5024567;28;87460;-37
2022/11/03 06:11:50;;;;;;;;;;;13.20;61.80;;;;;;5024647;28;87281;-37
2022/11/03 06:14:20;;;;;;;;;;;13.20;61.80;;;;;;5023868;28;88107;-37
2022/11/03 06:16:50;;;;;;;;;;;13.20;61.80;;;;;;5024129;28;87162;-37
2022/11/03 06:19:15;;;;;;;;;;;13.20;61.80;;;;;;5025837;28;88294;-37
2022/11/03 06:21:42;;;;;;;;;;;13.20;61.70;;;;;;5024299;28;87263;-37
2022/11/03 06:24:08;;;;;;;;;;;13.20;61.80;;;;;;5024015;28;87508;-37
2022/11/03 06:26:34;;;;;;;;;;;13.20;61.70;;;;;;5023446;28;88120;-37
2022/11/03 06:28:59;;;;;;;;;;;13.20;61.70;;;;;;5024068;28;87083;-37
2022/11/03 06:31:29;;;;;;;;;;;13.20;62.30;;;;;;5024085;28;87337;-37
2022/11/03 06:33:56;;;;;;;;;;;13.20;61.70;;;;;;5023334;28;88127;-37
2022/11/03 06:36:22;;;;;;;;;;;13.20;61.80;;;;;;5023789;28;88016;-37
2022/11/03 06:38:50;;;;;;;;;;;13.20;61.80;;;;;;5023864;28;87021;-37
2022/11/03 06:41:31;;;;;;;;;;;13.20;61.80;;;;;;5026167;28;88309;-36
2022/11/03 06:44:00;;;;;;;;;;;13.20;61.90;;;;;;5022369;28;88249;-37
2022/11/03 06:46:26;;;;;;;;;;;13.20;61.80;;;;;;5023307;28;88177;-37
2022/11/03 06:48:52;;;;;;;;;;;13.20;61.90;;;;;;5023481;28;87008;-37
2022/11/03 06:51:19;;;;;;;;;;;13.20;61.80;;;;;;5022093;28;88660;-37
2022/11/03 06:53:45;;;;;;;;;;;13.20;61.90;;;;;;5023357;28;88175;-37
2022/11/03 06:56:11;;;;;;;;;;;13.20;62.00;;;;;;5023598;28;87072;-37
2022/11/03 06:58:37;;;;;;;;;;;13.20;61.90;;;;;;5023481;28;87498;-37
2022/11/03 07:01:10;;;;;;;;;;;13.20;61.80;;;;;;5023746;28;87456;-37
2022/11/03 07:03:36;;;;;;;;;;;13.10;61.90;;;;;;5026168;28;87034;-37
2022/11/03 07:06:40;;;;;;;;;;;13.20;61.90;;;;;;5023128;28;87910;-37
2022/11/03 07:09:12;;;;;;;;;;;13.10;61.90;;;;;;4980518;28;88502;-37
2022/11/03 07:11:45;;;;;;;;;;;13.20;62.60;;;;;;4980867;28;90648;-37
2022/11/03 07:14:13;;;;;;;;;;;13.20;62.00;;;;;;5003134;28;87968;-37
2022/11/03 07:16:43;;;;;;;;;;;13.20;62.00;;;;;;5022949;28;87189;-37
2022/11/03 07:19:16;;;;;;;;;;;13.10;62.00;;;;;;5023076;28;87552;-37
2022/11/03 07:22:03;;;;;;;;;;;13.10;62.00;;;;;;5022579;28;88247;-37
2022/11/03 07:24:30;;;;;;;;;;;13.10;62.00;;;;;;5022923;28;87123;-37
2022/11/03 07:27:05;;;;;;;;;;;13.20;62.10;;;;;;5026092;28;86356;-37
2022/11/03 07:29:31;;;;;;;;;;;13.20;62.10;;;;;;5023001;28;87087;-37
2022/11/03 07:31:58;;;;;;;;;;;13.20;62.10;;;;;;5022812;28;87351;-37
2022/11/03 07:34:26;;;;;;;;;;;13.20;62.00;;;;;;5022047;28;89169;-37
2022/11/03 07:36:52;;;;;;;;;;;13.10;62.00;;;;;;5022539;28;87179;-37
2022/11/03 07:39:18;;;;;;;;;;;13.20;62.10;;;;;;5023114;28;87535;-37
2022/11/03 07:41:44;;;;;;;;;;;13.20;62.00;;;;;;5022510;28;88260;-37
2022/11/03 07:44:12;;;;;;;;;;;13.20;62.00;;;;;;5022638;28;87032;-37
2022/11/03 07:46:38;;;;;;;;;;;13.20;62.00;;;;;;5025275;28;87517;-37
2022/11/03 07:49:07;;;;;;;;;;;13.20;62.10;;;;;;5022596;28;87159;-37
2022/11/03 07:51:36;;;;;;;;;;;13.20;62.10;;;;;;5022812;28;88961;-37
2022/11/03 07:54:07;;;;;;;;;;;13.20;62.00;;;;;;5022149;28;88128;-37
2022/11/03 07:56:34;;;;;;;;;;;13.20;62.00;;;;;;5022444;28;87295;-37
2022/11/03 07:59:02;;;;;;;;;;;13.20;62.10;;;;;;5022193;28;87898;-37
2022/11/03 08:01:33;;;;;;;;;;;13.20;62.10;;;;;;5022273;28;88285;-37
2022/11/03 08:04:00;;;;;;;;;;;13.20;62.20;;;;;;5022341;28;87175;-37
2022/11/03 08:06:26;;;;;;;;;;;13.20;62.20;;;;;;5022592;28;86947;-37
2022/11/03 08:08:51;;;;;;;;;;;13.20;62.20;;;;;;5025248;28;88055;-37
2022/11/03 08:11:17;;;;;;;;;;;13.20;62.20;;;;;;5022493;28;87628;-37
2022/11/03 08:13:43;;;;;;;;;;;13.20;62.20;;;;;;5021884;28;89084;-37
2022/11/03 08:16:08;;;;;;;;;;;13.20;62.20;;;;;;5022951;28;86287;-37
2022/11/03 08:18:34;;;;;;;;;;;13.20;62.20;;;;;;5022428;28;87008;-37
2022/11/03 08:20:59;;;;;;;;;;;13.20;62.20;;;;;;5021752;28;89710;-37
2022/11/03 08:23:24;;;;;;;;;;;13.20;62.20;;;;;;5021766;28;88367;-37
2022/11/03 08:25:50;;;;;;;;;;;13.20;62.20;;;;;;5022345;28;88417;-37
2022/11/03 08:28:16;;;;;;;;;;;13.20;62.20;;;;;;5022061;28;88051;-37
2022/11/03 08:30:41;;;;;;;;;;;13.20;62.20;;;;;;5025116;28;87140;-37
2022/11/03 08:33:06;;;;;;;;;;;13.20;62.20;;;;;;5022019;28;88209;-37
2022/11/03 08:35:32;;;;;;;;;;;13.20;62.20;;;;;;5021199;28;89989;-37
2022/11/03 08:37:58;;;;;;;;;;;13.20;62.30;;;;;;5022376;28;87925;-37
2022/11/03 08:40:23;;;;;;;;;;;13.30;62.30;;;;;;5022345;28;87280;-37
2022/11/03 08:42:49;;;;;;;;;;;13.30;62.30;;;;;;5021938;28;87230;-37
2022/11/03 08:45:15;;;;;;;;;;;13.30;62.30;;;;;;5021813;28;88981;-37
2022/11/03 08:47:40;;;;;;;;;;;13.30;62.30;;;;;;5021070;28;88805;-37
2022/11/03 08:50:06;;;;;;;;;;;13.30;62.30;;;;;;5022107;28;87027;-37
2022/11/03 08:52:32;;;;;;;;;;;13.30;62.30;;;;;;5024739;28;87191;-37
2022/11/03 08:54:57;;;;;;;;;;;13.30;62.30;;;;;;5022065;28;86853;-37
2022/11/03 08:57:23;;;;;;;;;;;13.30;62.30;;;;;;5021683;28;89158;-37
2022/11/03 08:59:48;;;;;;;;;;;13.30;62.30;;;;;;5021634;28;88349;-37
2022/11/03 09:02:14;;;;;;;;;;;13.30;62.30;;;;;;5021783;28;87172;-37
2022/11/03 09:04:39;;;;;;;;;;;13.30;62.30;;;;;;5022351;28;87002;-37
2022/11/03 09:07:05;;;;;;;;;;;13.30;62.30;;;;;;5024585;28;88033;-37
2022/11/03 09:09:30;;;;;;;;;;;13.30;62.30;;;;;;5025211;28;87056;-37
2022/11/03 09:11:56;;;;;;;;;;;13.30;62.20;;;;;;5024588;28;87954;-37
2022/11/03 09:14:21;;;;;;;;;;;13.30;62.20;;;;;;5027810;28;88060;-37
2022/11/03 09:16:47;;;;;;;;;;;13.30;62.20;;;;;;5025171;28;87510;-37
2022/11/03 09:19:12;;;;;;;;;;;13.30;62.20;;;;;;5024797;28;88186;-37
2022/11/03 09:21:38;;;;;;;;;;;13.40;62.20;;;;;;5025233;28;87159;-37
2022/11/03 09:24:03;;;;;;;;;;;13.30;62.20;;;;;;5025056;28;87488;-37
2022/11/03 09:26:29;;;;;;;;;;;13.40;62.20;;;;;;5024456;28;87944;-37
2022/11/03 09:28:54;;;;;;;;;;;13.40;62.10;;;;;;5023990;28;86562;-37
2022/11/03 09:31:20;;;;;;;;;;;13.40;62.10;;;;;;5024918;28;86897;-37
2022/11/03 09:33:45;;;;;;;;;;;13.40;62.10;;;;;;5024522;28;88192;-37
2022/11/03 09:36:11;;;;;;;;;;;13.40;62.10;;;;;;5026293;28;88072;-37
2022/11/03 09:38:36;;;;;;;;;;;13.40;62.10;;;;;;5024447;28;88146;-37
2022/11/03 09:41:03;;;;;;;;;;;13.40;62.20;;;;;;5024704;28;87096;-37
2022/11/03 09:43:29;;;;;;;;;;;13.40;62.20;;;;;;5024579;28;88963;-37
2022/11/03 09:45:55;;;;;;;;;;;13.40;62.30;;;;;;5024202;28;89189;-37
2022/11/03 09:48:21;;;;;;;;;;;13.40;62.30;;;;;;5024457;28;86966;-37
2022/11/03 09:50:48;;;;;;;;;;;13.40;62.30;;;;;;5024306;28;88736;-37
2022/11/03 09:53:14;;;;;;;;;;;13.50;62.50;;;;;;5024677;28;87374;-37
2022/11/03 09:55:39;;;;;;;;;;;13.50;62.30;;;;;;5027238;28;87024;-37
2022/11/03 09:58:15;;;;;;;;;;;13.50;62.40;;;;;;5024083;28;88300;-37
2022/11/03 10:00:41;;;;;;;;;;;13.50;62.40;;;;;;5023977;28;88067;-37
2022/11/03 10:03:11;;;;;;;;;;;13.50;62.50;;;;;;5024551;28;88253;-37
2022/11/03 10:05:37;;;;;;;;;;;13.50;62.50;;;;;;5024064;28;88178;-37
2022/11/03 10:08:10;;;;;;;;;;;13.50;62.50;;;;;;5024339;28;87111;-37
2022/11/03 10:10:36;;;;;;;;;;;13.50;62.50;;;;;;5024085;28;87499;-37
2022/11/03 10:13:07;;;;;;;;;;;13.50;62.60;;;;;;5023744;28;89408;-37
2022/11/03 10:15:33;;;;;;;;;;;13.50;62.70;;;;;;5024051;28;87017;-37
2022/11/03 10:17:59;;;;;;;;;;;13.60;62.70;;;;;;5026144;28;87518;-37
2022/11/03 10:20:27;;;;;;;;;;;13.60;62.60;;;;;;5024081;28;87159;-37
2022/11/03 10:22:53;;;;;;;;;;;13.60;62.80;;;;;;5023795;28;87580;-37
2022/11/03 10:25:25;;;;;;;;;;;13.60;62.80;;;;;;5022768;28;89818;-37
2022/11/03 10:27:50;;;;;;;;;;;13.60;62.90;;;;;;5023984;28;87088;-37
2022/11/03 10:30:16;;;;;;;;;;;13.60;62.90;;;;;;5024305;28;87843;-37
2022/11/03 10:32:41;;;;;;;;;;;13.60;62.90;;;;;;5023595;28;88096;-37
2022/11/03 10:35:27;;;;;;;;;;;13.60;63.00;;;;;;5023218;28;87166;-43
2022/11/03 10:37:52;;;;;;;;;;;13.70;63.00;;;;;;5023756;28;87179;-37
2022/11/03 10:40:34;;;;;;;;;;;13.70;63.10;;;;;;5026483;28;88164;-37
2022/11/03 10:42:59;;;;;;;;;;;13.70;63.00;;;;;;5024246;28;87312;-37
2022/11/03 10:45:25;;;;;;;;;;;13.70;63.00;;;;;;5023277;28;88131;-37
2022/11/03 10:48:00;;;;;;;;;;;13.70;63.10;;;;;;5023788;28;87014;-37
2022/11/03 10:50:26;;;;;;;;;;;13.70;63.10;;;;;;5022916;28;88268;-37
2022/11/03 10:52:53;;;;;;;;;;;13.70;63.10;;;;;;5023294;28;87938;-37
2022/11/03 10:55:19;;;;;;;;;;;13.70;63.20;;;;;;5023501;28;87116;-37
2022/11/03 10:57:45;;;;;;;;;;;13.80;63.30;;;;;;5023618;28;87480;-37
2022/11/03 11:00:14;;;;;;;;;;;13.80;63.20;;;;;;5023235;28;88293;-37
2022/11/03 11:02:41;;;;;;;;;;;13.80;63.30;;;;;;5026004;28;87099;-37
2022/11/03 11:05:14;;;;;;;;;;;13.80;63.20;;;;;;5023013;28;87373;-37
2022/11/03 11:07:40;;;;;;;;;;;13.80;63.20;;;;;;5023910;28;86360;-37
2022/11/03 11:10:10;;;;;;;;;;;13.80;63.30;;;;;;5023244;28;87001;-37
2022/11/03 11:12:35;;;;;;;;;;;13.80;63.30;;;;;;5022707;28;89477;-37
2022/11/03 11:15:06;;;;;;;;;;;13.80;63.20;;;;;;5021240;28;88155;-37
2022/11/03 11:17:43;;;;;;;;;;;13.90;63.50;;;;;;5023011;28;88422;-37
2022/11/03 11:20:28;;;;;;;;;;;13.90;63.30;;;;;;5022629;28;88280;-37
2022/11/03 11:22:53;;;;;;;;;;;13.90;63.20;;;;;;5023237;28;87121;-37
2022/11/03 11:25:19;;;;;;;;;;;13.90;63.30;;;;;;5025742;28;87246;-37
2022/11/03 11:27:45;;;;;;;;;;;13.90;63.40;;;;;;5023070;28;87106;-37
2022/11/03 11:30:17;;;;;;;;;;;13.90;63.40;;;;;;5022510;28;87981;-37
2022/11/03 11:32:47;;;;;;;;;;;13.90;63.40;;;;;;5022785;28;88605;-37
2022/11/03 11:35:17;;;;;;;;;;;14.00;63.40;;;;;;5022361;28;87969;-37
2022/11/03 11:37:43;;;;;;;;;;;14.00;63.30;;;;;;5022785;28;86976;-37
2022/11/03 11:40:23;;;;;;;;;;;14.00;63.30;;;;;;5021962;28;88998;-37
2022/11/03 11:43:10;;;;;;;;;;;14.00;63.40;;;;;;5023021;28;87131;-37
2022/11/03 11:45:54;;;;;;;;;;;14.00;63.40;;;;;;5014882;28;87936;-37
2022/11/03 11:48:19;;;;;;;;;;;14.00;63.30;;;;;;5025413;28;87950;-37
2022/11/03 11:50:45;;;;;;;;;;;14.00;63.40;;;;;;5022640;28;87504;-37
2022/11/03 11:53:12;;;;;;;;;;;14.10;63.40;;;;;;5022205;28;88146;-37
2022/11/03 11:55:37;;;;;;;;;;;14.10;63.40;;;;;;5022536;28;87202;-37
2022/11/03 11:58:04;;;;;;;;;;;14.10;63.20;;;;;;5023293;28;87385;-37
2022/11/03 12:00:32;;;;;;;;;;;14.10;63.30;;;;;;5022282;28;87912;-37
2022/11/03 12:02:58;;;;;;;;;;;14.10;63.80;;;;;;5022432;28;87171;-37
2022/11/03 12:05:26;;;;;;;;;;;14.10;63.20;;;;;;5021788;28;87917;-37
2022/11/03 12:07:52;;;;;;;;;;;14.20;63.20;;;;;;5024891;28;89572;-37
2022/11/03 12:10:21;;;;;;;;;;;14.20;63.20;;;;;;5022629;28;87496;-37
2022/11/03 12:12:47;;;;;;;;;;;14.20;63.20;;;;;;5021935;28;88412;-37
2022/11/03 12:15:31;;;;;;;;;;;14.20;63.20;;;;;;5022459;28;88211;-37
2022/11/03 12:17:57;;;;;;;;;;;14.20;63.20;;;;;;5022294;28;87364;-37
2022/11/03 12:20:43;;;;;;;;;;;14.20;63.10;;;;;;5021811;28;88509;-37
2022/11/03 12:23:08;;;;;;;;;;;14.20;63.10;;;;;;5023117;28;86345;-37
2022/11/03 12:25:35;;;;;;;;;;;14.20;63.60;;;;;;5022458;28;86855;-37
2022/11/03 12:28:01;;;;;;;;;;;14.30;63.10;;;;;;5021941;28;88049;-37
2022/11/03 12:30:26;;;;;;;;;;;14.30;63.10;;;;;;5024572;28;87982;-37
2022/11/03 12:32:52;;;;;;;;;;;14.30;63.00;;;;;;5021724;28;88238;-37
2022/11/03 12:35:17;;;;;;;;;;;14.30;62.90;;;;;;5021856;28;89437;-37
2022/11/03 12:37:43;;;;;;;;;;;14.30;63.00;;;;;;5021845;28;88842;-37
2022/11/03 12:40:10;;;;;;;;;;;14.30;62.80;;;;;;5021795;28;89146;-37
2022/11/03 12:42:36;;;;;;;;;;;14.30;62.90;;;;;;5025734;28;87083;-37
2022/11/03 12:45:02;;;;;;;;;;;14.30;62.70;;;;;;5025531;28;87395;-37
2022/11/03 12:47:27;;;;;;;;;;;14.40;62.90;;;;;;5025759;28;87153;-37
2022/11/03 12:49:53;;;;;;;;;;;14.40;62.70;;;;;;5025642;28;86853;-37
2022/11/03 12:52:18;;;;;;;;;;;14.40;62.80;;;;;;5028109;28;87434;-37
2022/11/03 12:54:43;;;;;;;;;;;14.40;62.80;;;;;;5024971;28;88049;-37
2022/11/03 12:57:09;;;;;;;;;;;14.40;62.80;;;;;;5025410;28;88610;-37
2022/11/03 12:59:35;;;;;;;;;;;14.40;62.70;;;;;;5025123;28;88165;-37
2022/11/03 13:02:00;;;;;;;;;;;14.40;62.70;;;;;;5025437;28;87116;-37
2022/11/03 13:04:26;;;;;;;;;;;14.40;62.70;;;;;;5025591;28;88282;-37
2022/11/03 13:06:51;;;;;;;;;;;14.50;62.70;;;;;;5025029;28;88183;-37
2022/11/03 13:09:17;;;;;;;;;;;14.50;62.80;;;;;;5025198;28;87231;-37
2022/11/03 13:14:26;;;;;;;;;;;14.50;62.70;;;;;;5027740;28;87525;-37
2022/11/03 13:16:52;;;;;;;;;;;14.60;62.70;;;;;;5025344;28;87447;-37
2022/11/03 13:19:17;;;;;;;;;;;14.50;62.60;;;;;;5024250;28;89066;-37
2022/11/03 13:21:43;;;;;;;;;;;14.60;62.80;;;;;;5025095;28;86976;-37
2022/11/03 13:24:09;;;;;;;;;;;14.60;62.70;;;;;;5024998;28;88792;-37
2022/11/03 13:26:34;;;;;;;;;;;14.60;62.80;;;;;;5024520;28;88381;-37
2022/11/03 13:29:00;;;;;;;;;;;14.60;62.80;;;;;;5024918;28;87144;-37
2022/11/03 13:31:25;;;;;;;;;;;14.60;62.70;;;;;;5024928;28;87410;-37
2022/11/03 13:33:51;;;;;;;;;;;14.60;62.70;;;;;;5024294;28;88589;-37
2022/11/03 13:36:41;;;;;;;;;;;14.60;62.80;;;;;;5027013;28;86499;-37
2022/11/03 13:39:07;;;;;;;;;;;14.70;62.90;;;;;;5024606;28;87912;-37
2022/11/03 13:41:32;;;;;;;;;;;14.70;62.70;;;;;;5024455;28;87079;-37
2022/11/03 13:43:58;;;;;;;;;;;14.70;62.80;;;;;;5024280;28;87841;-37
2022/11/03 13:46:23;;;;;;;;;;;14.70;62.80;;;;;;5024801;28;88168;-37
2022/11/03 13:48:49;;;;;;;;;;;14.70;62.80;;;;;;5024371;28;87101;-37
2022/11/03 13:51:16;;;;;;;;;;;14.70;62.80;;;;;;5024293;28;86984;-37
2022/11/03 13:53:42;;;;;;;;;;;14.70;62.80;;;;;;5024072;28;89718;-37
2022/11/03 13:56:07;;;;;;;;;;;14.70;62.70;;;;;;5024391;28;87015;-37
2022/11/03 13:58:33;;;;;;;;;;;14.80;62.80;;;;;;5026966;28;87273;-37
2022/11/03 14:00:58;;;;;;;;;;;14.80;62.80;;;;;;5025099;28;86457;-37
2022/11/03 14:03:24;;;;;;;;;;;14.80;62.80;;;;;;5024523;28;86835;-37
2022/11/03 14:05:49;;;;;;;;;;;14.80;62.70;;;;;;5024286;28;88051;-37
2022/11/03 14:08:15;;;;;;;;;;;14.80;62.80;;;;;;5023737;28;88063;-37
2022/11/03 14:10:40;;;;;;;;;;;14.80;62.80;;;;;;5024037;28;88386;-37
2022/11/03 14:13:06;;;;;;;;;;;14.80;62.80;;;;;;5023849;28;88117;-37
2022/11/03 14:15:33;;;;;;;;;;;14.80;62.80;;;;;;5024343;28;87206;-37
2022/11/03 14:17:58;;;;;;;;;;;14.90;62.90;;;;;;5026355;28;88837;-37
2022/11/03 14:20:24;;;;;;;;;;;14.90;62.80;;;;;;5024094;28;87031;-37
2022/11/03 14:22:50;;;;;;;;;;;14.90;62.80;;;;;;5024031;28;87375;-37
2022/11/03 14:25:15;;;;;;;;;;;14.90;62.80;;;;;;5024414;28;87564;-37
2022/11/03 14:27:41;;;;;;;;;;;14.90;62.80;;;;;;5024176;28;87271;-37
2022/11/03 14:30:07;;;;;;;;;;;14.90;62.80;;;;;;5024077;28;87510;-37
2022/11/03 14:32:32;;;;;;;;;;;14.90;62.80;;;;;;5023017;28;88962;-37
2022/11/03 14:34:58;;;;;;;;;;;14.90;62.80;;;;;;5023263;28;86896;-37
2022/11/03 14:37:24;;;;;;;;;;;14.90;62.70;;;;;;5023838;28;87416;-37
2022/11/03 14:39:49;;;;;;;;;;;14.90;62.80;;;;;;5026235;28;89361;-37